sensor_id;sensor_type;location;lat;lon;timestamp;pressure;altitude;pressure_sealevel;temperature;humidity
42111;BME280;27766;52.174;5.456;2022-07-29T00:01:20;101752.75;;;15.44;100.00
42111;BME280;27766;52.174;5.456;2022-07-29T00:03:48;101744.03;;;15.40;100.00
42111;BME280;27766;52.174;5.456;2022-07-29T00:06:17;101749.31;;;15.45;100.00
42111;BME280;27766;52.174;5.456;2022-07-29T00:08:46;101750.16;;;15.42;100.00
42111;BME280;27766;52.174;5.456;2022-07-29T00:11:13;101741.38;;;15.37;100.00
42111;BME280;27766;52.174;5.456;2022-07-29T00:13:41;101738.75;;;15.35;100.00
42111;BME280;27766;52.174;5.456;2022-07-29T00:16:11;101736.94;;;15.30;100.00
42111;BME280;27766;52.174;5.456;2022-07-29T00:18:38;101732.56;;;15.29;100.00
42111;BME280;27766;52.174;5.456;2022-07-29T00:21:06;101733.47;;;15.29;100.00
42111;BME280;27766;52.174;5.456;2022-07-29T00:23:33;101723.03;;;15.29;100.00
42111;BME280;27766;52.174;5.456;2022-07-29T00:26:03;101726.53;;;15.33;100.00
42111;BME280;27766;52.174;5.456;2022-07-29T00:28:33;101730.84;;;15.31;100.00
42111;BME280;27766;52.174;5.456;2022-07-29T00:31:02;101722.13;;;15.26;100.00
42111;BME280;27766;52.174;5.456;2022-07-29T00:33:29;101722.13;;;15.29;100.00
42111;BME280;27766;52.174;5.456;2022-07-29T00:35:56;101720.41;;;15.28;100.00
42111;BME280;27766;52.174;5.456;2022-07-29T00:38:23;101710.78;;;15.25;100.00
42111;BME280;27766;52.174;5.456;2022-07-29T00:40:52;101702.97;;;15.24;100.00
42111;BME280;27766;52.174;5.456;2022-07-29T00:43:22;101702.97;;;15.24;100.00
42111;BME280;27766;52.174;5.456;2022-07-29T00:45:52;101704.66;;;15.22;100.00
42111;BME280;27766;52.174;5.456;2022-07-29T00:48:20;101701.25;;;15.24;100.00
42111;BME280;27766;52.174;5.456;2022-07-29T00:50:50;101696.84;;;15.22;100.00
42111;BME280;27766;52.174;5.456;2022-07-29T00:53:19;101692.44;;;15.17;100.00
42111;BME280;27766;52.174;5.456;2022-07-29T00:55:47;101699.41;;;15.17;100.00
42111;BME280;27766;52.174;5.456;2022-07-29T00:58:18;101692.41;;;15.14;100.00
42111;BME280;27766;52.174;5.456;2022-07-29T01:00:46;101688.09;;;15.16;100.00
42111;BME280;27766;52.174;5.456;2022-07-29T01:03:14;101674.94;;;15.07;100.00
42111;BME280;27766;52.174;5.456;2022-07-29T01:05:42;101689.78;;;15.14;100.00
42111;BME280;27766;52.174;5.456;2022-07-29T01:08:18;101686.31;;;15.14;100.00
42111;BME280;27766;52.174;5.456;2022-07-29T01:10:46;101689.78;;;15.11;100.00
42111;BME280;27766;52.174;5.456;2022-07-29T01:13:17;101690.69;;;15.13;100.00
42111;BME280;27766;52.174;5.456;2022-07-29T01:15:51;101685.41;;;15.09;100.00
42111;BME280;27766;52.174;5.456;2022-07-29T01:18:44;101689.72;;;15.07;100.00
42111;BME280;27766;52.174;5.456;2022-07-29T01:21:23;101685.34;;;15.07;100.00
42111;BME280;27766;52.174;5.456;2022-07-29T01:27:01;101681.88;;;15.05;100.00
42111;BME280;27766;52.174;5.456;2022-07-29T01:29:36;101674.84;;;14.98;100.00
42111;BME280;27766;52.174;5.456;2022-07-29T01:32:19;101676.56;;;14.99;100.00
42111;BME280;27766;52.174;5.456;2022-07-29T01:40:54;101670.41;;;14.94;100.00
42111;BME280;27766;52.174;5.456;2022-07-29T01:43:56;101654.66;;;14.84;100.00
42111;BME280;27766;52.174;5.456;2022-07-29T01:46:35;101677.28;;;14.87;100.00
42111;BME280;27766;52.174;5.456;2022-07-29T01:49:21;101672.88;;;14.83;100.00
42111;BME280;27766;52.174;5.456;2022-07-29T01:52:00;101682.44;;;14.82;100.00
42111;BME280;27766;52.174;5.456;2022-07-29T01:54:37;101682.44;;;14.82;100.00
42111;BME280;27766;52.174;5.456;2022-07-29T01:57:08;101681.53;;;14.79;100.00
42111;BME280;27766;52.174;5.456;2022-07-29T01:59:37;101685.00;;;14.78;100.00
42111;BME280;27766;52.174;5.456;2022-07-29T02:02:08;101687.59;;;14.78;100.00
42111;BME280;27766;52.174;5.456;2022-07-29T02:04:37;101686.69;;;14.77;100.00
42111;BME280;27766;52.174;5.456;2022-07-29T02:07:07;101679.72;;;14.75;100.00
42111;BME280;27766;52.174;5.456;2022-07-29T02:09:37;101678.03;;;14.77;100.00
42111;BME280;27766;52.174;5.456;2022-07-29T02:12:07;101677.13;;;14.76;100.00
42111;BME280;27766;52.174;5.456;2022-07-29T02:14:38;101668.31;;;14.68;100.00
42111;BME280;27766;52.174;5.456;2022-07-29T02:17:07;101674.50;;;14.73;100.00
42111;BME280;27766;52.174;5.456;2022-07-29T02:19:37;101684.94;;;14.76;100.00
42111;BME280;27766;52.174;5.456;2022-07-29T02:22:05;101663.13;;;14.68;100.00
42111;BME280;27766;52.174;5.456;2022-07-29T02:24:37;101681.53;;;14.79;100.00
42111;BME280;27766;52.174;5.456;2022-07-29T02:27:07;101670.16;;;14.75;100.00
42111;BME280;27766;52.174;5.456;2022-07-29T02:29:36;101678.88;;;14.76;100.00
42111;BME280;27766;52.174;5.456;2022-07-29T02:32:05;101675.34;;;14.74;100.00
42111;BME280;27766;52.174;5.456;2022-07-29T02:34:38;101669.25;;;14.71;100.00
42111;BME280;27766;52.174;5.456;2022-07-29T02:37:05;101664.94;;;14.75;100.00
42111;BME280;27766;52.174;5.456;2022-07-29T02:39:36;101659.69;;;14.70;100.00
42111;BME280;27766;52.174;5.456;2022-07-29T02:42:07;101666.69;;;14.73;100.00
42111;BME280;27766;52.174;5.456;2022-07-29T02:44:35;101657.88;;;14.66;100.00
42111;BME280;27766;52.174;5.456;2022-07-29T02:52:40;101649.94;;;14.59;100.00
42111;BME280;27766;52.174;5.456;2022-07-29T02:55:25;101660.31;;;14.57;100.00
42111;BME280;27766;52.174;5.456;2022-07-29T03:00:28;101667.19;;;14.50;100.00
42111;BME280;27766;52.174;5.456;2022-07-29T03:02:59;101668.03;;;14.49;100.00
42111;BME280;27766;52.174;5.456;2022-07-29T03:05:29;101650.56;;;14.42;100.00
42111;BME280;27766;52.174;5.456;2022-07-29T03:08:02;101664.53;;;14.47;100.00
42111;BME280;27766;52.174;5.456;2022-07-29T03:10:31;101664.50;;;14.44;100.00
42111;BME280;27766;52.174;5.456;2022-07-29T03:13:00;101661.91;;;14.44;100.00
42111;BME280;27766;52.174;5.456;2022-07-29T03:15:28;101655.81;;;14.45;100.00
42111;BME280;27766;52.174;5.456;2022-07-29T03:17:57;101659.31;;;14.46;100.00
42111;BME280;27766;52.174;5.456;2022-07-29T03:20:26;101652.28;;;14.41;100.00
42111;BME280;27766;52.174;5.456;2022-07-29T03:22:53;101654.03;;;14.41;100.00
42111;BME280;27766;52.174;5.456;2022-07-29T03:25:23;101649.59;;;14.37;100.00
42111;BME280;27766;52.174;5.456;2022-07-29T03:27:52;101647.03;;;14.38;100.00
42111;BME280;27766;52.174;5.456;2022-07-29T03:30:20;101642.69;;;14.39;100.00
42111;BME280;27766;52.174;5.456;2022-07-29T03:32:50;101647.00;;;14.37;100.00
42111;BME280;27766;52.174;5.456;2022-07-29T03:35:20;101638.31;;;14.35;100.00
42111;BME280;27766;52.174;5.456;2022-07-29T03:37:47;101640.16;;;14.42;100.00
42111;BME280;27766;52.174;5.456;2022-07-29T03:40:23;101641.78;;;14.37;100.00
42111;BME280;27766;52.174;5.456;2022-07-29T03:42:53;101644.41;;;14.37;100.00
42111;BME280;27766;52.174;5.456;2022-07-29T03:45:24;101637.41;;;14.33;100.00
42111;BME280;27766;52.174;5.456;2022-07-29T03:48:00;101640.84;;;14.29;100.00
42111;BME280;27766;52.174;5.456;2022-07-29T03:50:31;101629.50;;;14.25;100.00
42111;BME280;27766;52.174;5.456;2022-07-29T03:53:02;101632.06;;;14.23;100.00
42111;BME280;27766;52.174;5.456;2022-07-29T03:55:40;101628.53;;;14.20;100.00
42111;BME280;27766;52.174;5.456;2022-07-29T03:58:10;101611.91;;;14.12;100.00
42111;BME280;27766;52.174;5.456;2022-07-29T04:00:40;101625.06;;;14.19;100.00
42111;BME280;27766;52.174;5.456;2022-07-29T04:03:09;101619.78;;;14.16;100.00
42111;BME280;27766;52.174;5.456;2022-07-29T04:05:37;101608.44;;;14.09;100.00
42111;BME280;27766;52.174;5.456;2022-07-29T04:08:05;101625.00;;;14.18;100.00
42111;BME280;27766;52.174;5.456;2022-07-29T04:10:32;101630.19;;;14.16;100.00
42111;BME280;27766;52.174;5.456;2022-07-29T04:13:01;101635.44;;;14.18;100.00
42111;BME280;27766;52.174;5.456;2022-07-29T04:15:29;101620.78;;;14.23;100.00
42111;BME280;27766;52.174;5.456;2022-07-29T04:17:58;101623.34;;;14.21;100.00
42111;BME280;27766;52.174;5.456;2022-07-29T04:20:25;101616.34;;;14.17;100.00
42111;BME280;27766;52.174;5.456;2022-07-29T04:22:52;101625.94;;;14.21;100.00
42111;BME280;27766;52.174;5.456;2022-07-29T04:25:22;101623.31;;;14.18;100.00
42111;BME280;27766;52.174;5.456;2022-07-29T04:27:49;101620.69;;;14.18;100.00
42111;BME280;27766;52.174;5.456;2022-07-29T04:30:31;101622.41;;;14.18;100.00
42111;BME280;27766;52.174;5.456;2022-07-29T04:33:00;101618.94;;;14.17;100.00
42111;BME280;27766;52.174;5.456;2022-07-29T04:35:29;101623.28;;;14.17;100.00
42111;BME280;27766;52.174;5.456;2022-07-29T04:38:05;101623.25;;;14.15;100.00
42111;BME280;27766;52.174;5.456;2022-07-29T04:40:41;101619.69;;;14.10;100.00
42111;BME280;27766;52.174;5.456;2022-07-29T04:43:09;101611.88;;;14.08;100.00
42111;BME280;27766;52.174;5.456;2022-07-29T04:45:39;101619.69;;;14.08;100.00
42111;BME280;27766;52.174;5.456;2022-07-29T04:48:06;101622.41;;;14.18;100.00
42111;BME280;27766;52.174;5.456;2022-07-29T04:50:40;101623.31;;;14.18;100.00
42111;BME280;27766;52.174;5.456;2022-07-29T04:53:07;101625.91;;;14.20;100.00
42111;BME280;27766;52.174;5.456;2022-07-29T04:55:34;101622.47;;;14.21;100.00
42111;BME280;27766;52.174;5.456;2022-07-29T04:58:05;101617.25;;;14.21;100.00
42111;BME280;27766;52.174;5.456;2022-07-29T05:00:32;101620.69;;;14.18;100.00
42111;BME280;27766;52.174;5.456;2022-07-29T05:03:00;101620.72;;;14.21;100.00
42111;BME280;27766;52.174;5.456;2022-07-29T05:05:27;101623.38;;;14.23;100.00
42111;BME280;27766;52.174;5.456;2022-07-29T05:07:57;101626.75;;;14.17;100.00
42111;BME280;27766;52.174;5.456;2022-07-29T05:10:27;101624.06;;;14.13;100.00
42111;BME280;27766;52.174;5.456;2022-07-29T05:12:56;101623.06;;;14.04;100.00
42111;BME280;27766;52.174;5.456;2022-07-29T05:15:23;101627.44;;;14.05;100.00
42111;BME280;27766;52.174;5.456;2022-07-29T05:17:53;101625.75;;;14.09;100.00
42111;BME280;27766;52.174;5.456;2022-07-29T05:20:22;101623.06;;;14.03;100.00
42111;BME280;27766;52.174;5.456;2022-07-29T05:22:58;101626.59;;;14.08;100.00
42111;BME280;27766;52.174;5.456;2022-07-29T05:25:26;101631.88;;;14.11;100.00
42111;BME280;27766;52.174;5.456;2022-07-29T05:28:11;101637.97;;;14.13;100.00
42111;BME280;27766;52.174;5.456;2022-07-29T05:30:38;101631.91;;;14.14;100.00
42111;BME280;27766;52.174;5.456;2022-07-29T05:33:05;101632.03;;;14.20;100.00
42111;BME280;27766;52.174;5.456;2022-07-29T05:35:32;101618.03;;;14.15;100.00
42111;BME280;27766;52.174;5.456;2022-07-29T05:38:01;101632.97;;;14.25;100.00
42111;BME280;27766;52.174;5.456;2022-07-29T05:40:29;101639.84;;;14.22;100.00
42111;BME280;27766;52.174;5.456;2022-07-29T05:42:56;101647.66;;;14.23;100.00
42111;BME280;27766;52.174;5.456;2022-07-29T05:45:23;101655.56;;;14.28;100.00
42111;BME280;27766;52.174;5.456;2022-07-29T05:47:52;101649.56;;;14.34;100.00
42111;BME280;27766;52.174;5.456;2022-07-29T05:50:20;101650.50;;;14.39;100.00
42111;BME280;27766;52.174;5.456;2022-07-29T05:52:47;101644.50;;;14.43;100.00
42111;BME280;27766;52.174;5.456;2022-07-29T05:55:16;101650.66;;;14.47;100.00
42111;BME280;27766;52.174;5.456;2022-07-29T05:57:44;101650.72;;;14.53;100.00
42111;BME280;27766;52.174;5.456;2022-07-29T06:00:12;101646.34;;;14.50;100.00
42111;BME280;27766;52.174;5.456;2022-07-29T06:02:39;101655.16;;;14.59;100.00
42111;BME280;27766;52.174;5.456;2022-07-29T06:05:06;101655.28;;;14.66;100.00
42111;BME280;27766;52.174;5.456;2022-07-29T06:07:42;101660.50;;;14.68;100.00
42111;BME280;27766;52.174;5.456;2022-07-29T06:10:17;101659.78;;;14.77;100.00
42111;BME280;27766;52.174;5.456;2022-07-29T06:12:52;101656.41;;;14.85;100.00
42111;BME280;27766;52.174;5.456;2022-07-29T06:15:22;101659.09;;;14.92;100.00
42111;BME280;27766;52.174;5.456;2022-07-29T06:17:49;101654.84;;;15.00;100.00
42111;BME280;27766;52.174;5.456;2022-07-29T06:20:30;101658.38;;;15.03;100.00
42111;BME280;27766;52.174;5.456;2022-07-29T06:22:58;101652.31;;;15.06;100.00
42111;BME280;27766;52.174;5.456;2022-07-29T06:25:26;101667.22;;;15.15;100.00
42111;BME280;27766;52.174;5.456;2022-07-29T06:27:57;101674.25;;;15.21;100.00
42111;BME280;27766;52.174;5.456;2022-07-29T06:30:25;101685.59;;;15.26;100.00
42111;BME280;27766;52.174;5.456;2022-07-29T06:32:53;101689.13;;;15.29;100.00
42111;BME280;27766;52.174;5.456;2022-07-29T06:35:22;101693.44;;;15.27;100.00
42111;BME280;27766;52.174;5.456;2022-07-29T06:38:08;101696.94;;;15.29;100.00
42111;BME280;27766;52.174;5.456;2022-07-29T06:40:56;101707.44;;;15.34;100.00
42111;BME280;27766;52.174;5.456;2022-07-29T06:43:39;101693.44;;;15.27;100.00
42111;BME280;27766;52.174;5.456;2022-07-29T06:46:22;101685.63;;;15.29;100.00
42111;BME280;27766;52.174;5.456;2022-07-29T06:48:50;101684.75;;;15.27;100.00
42111;BME280;27766;52.174;5.456;2022-07-29T06:51:20;101683.13;;;15.38;100.00
42111;BME280;27766;52.174;5.456;2022-07-29T06:53:51;101689.41;;;15.56;100.00
42111;BME280;27766;52.174;5.456;2022-07-29T06:56:30;101667.84;;;15.71;100.00
42111;BME280;27766;52.174;5.456;2022-07-29T06:59:10;101677.56;;;15.84;100.00
42111;BME280;27766;52.174;5.456;2022-07-29T07:01:39;101681.97;;;15.90;100.00
42111;BME280;27766;52.174;5.456;2022-07-29T07:04:08;101674.19;;;15.99;100.00
42111;BME280;27766;52.174;5.456;2022-07-29T07:06:36;101690.00;;;16.14;100.00
42111;BME280;27766;52.174;5.456;2022-07-29T07:09:04;101691.75;;;16.16;100.00
42111;BME280;27766;52.174;5.456;2022-07-29T07:11:32;101696.09;;;16.13;100.00
42111;BME280;27766;52.174;5.456;2022-07-29T07:14:00;101679.50;;;16.07;100.00
42111;BME280;27766;52.174;5.456;2022-07-29T07:16:40;101694.53;;;16.34;100.00
42111;BME280;27766;52.174;5.456;2022-07-29T07:19:08;101685.13;;;16.61;100.00
42111;BME280;27766;52.174;5.456;2022-07-29T07:21:35;101697.47;;;16.90;100.00
42111;BME280;27766;52.174;5.456;2022-07-29T07:24:02;101691.59;;;17.25;100.00
42111;BME280;27766;52.174;5.456;2022-07-29T07:26:32;101696.06;;;17.60;100.00
42111;BME280;27766;52.174;5.456;2022-07-29T07:28:59;101690.00;;;17.91;100.00
42111;BME280;27766;52.174;5.456;2022-07-29T07:31:27;101687.44;;;18.01;100.00
42111;BME280;27766;52.174;5.456;2022-07-29T07:33:56;101694.44;;;18.12;100.00
42111;BME280;27766;52.174;5.456;2022-07-29T07:36:23;101691.81;;;18.23;100.00
42111;BME280;27766;52.174;5.456;2022-07-29T07:38:52;101688.28;;;18.33;100.00
42111;BME280;27766;52.174;5.456;2022-07-29T07:41:22;101676.06;;;18.49;100.00
42111;BME280;27766;52.174;5.456;2022-07-29T07:43:50;101680.34;;;18.78;100.00
42111;BME280;27766;52.174;5.456;2022-07-29T07:46:17;101672.44;;;18.89;100.00
42111;BME280;27766;52.174;5.456;2022-07-29T07:48:44;101668.94;;;19.04;100.00
42111;BME280;27766;52.174;5.456;2022-07-29T07:51:11;101656.66;;;19.06;100.00
42111;BME280;27766;52.174;5.456;2022-07-29T07:53:38;101674.16;;;19.10;100.00
42111;BME280;27766;52.174;5.456;2022-07-29T07:56:06;101672.34;;;19.17;100.00
42111;BME280;27766;52.174;5.456;2022-07-29T07:58:39;101671.44;;;19.28;100.00
42111;BME280;27766;52.174;5.456;2022-07-29T08:01:06;101672.28;;;19.38;100.00
42111;BME280;27766;52.174;5.456;2022-07-29T08:03:34;101666.22;;;19.25;99.70
42111;BME280;27766;52.174;5.456;2022-07-29T08:06:03;101672.41;;;19.09;100.00
42111;BME280;27766;52.174;5.456;2022-07-29T08:08:37;101654.09;;;18.93;100.00
42111;BME280;27766;52.174;5.456;2022-07-29T08:11:04;101655.84;;;18.94;100.00
42111;BME280;27766;52.174;5.456;2022-07-29T08:13:36;101666.34;;;18.90;100.00
42111;BME280;27766;52.174;5.456;2022-07-29T08:16:07;101661.97;;;18.79;100.00
42111;BME280;27766;52.174;5.456;2022-07-29T08:18:43;101651.50;;;18.70;100.00
42111;BME280;27766;52.174;5.456;2022-07-29T08:21:11;101654.13;;;18.75;100.00
42111;BME280;27766;52.174;5.456;2022-07-29T08:23:42;101656.75;;;18.75;100.00
42111;BME280;27766;52.174;5.456;2022-07-29T08:26:43;101663.78;;;18.51;100.00
42111;BME280;27766;52.174;5.456;2022-07-29T08:29:10;101662.06;;;18.48;100.00
42111;BME280;27766;52.174;5.456;2022-07-29T08:31:38;101662.09;;;18.41;100.00
42111;BME280;27766;52.174;5.456;2022-07-29T08:34:06;101669.94;;;18.50;100.00
42111;BME280;27766;52.174;5.456;2022-07-29T08:36:34;101669.91;;;18.62;100.00
42111;BME280;27766;52.174;5.456;2022-07-29T08:39:02;101666.38;;;18.76;100.00
42111;BME280;27766;52.174;5.456;2022-07-29T08:41:31;101674.25;;;18.71;100.00
42111;BME280;27766;52.174;5.456;2022-07-29T08:43:58;101659.44;;;18.65;100.00
42111;BME280;27766;52.174;5.456;2022-07-29T08:46:25;101665.53;;;18.66;100.00
42111;BME280;27766;52.174;5.456;2022-07-29T08:48:52;101661.09;;;18.94;100.00
42111;BME280;27766;52.174;5.456;2022-07-29T08:51:22;101675.91;;;19.11;100.00
42111;BME280;27766;52.174;5.456;2022-07-29T08:53:51;101668.88;;;19.13;100.00
42111;BME280;27766;52.174;5.456;2022-07-29T08:56:19;101676.75;;;19.19;100.00
42111;BME280;27766;52.174;5.456;2022-07-29T08:58:48;101678.47;;;19.23;100.00
42111;BME280;27766;52.174;5.456;2022-07-29T09:01:22;101673.28;;;19.08;100.00
42111;BME280;27766;52.174;5.456;2022-07-29T09:04:04;101668.81;;;19.32;100.00
42111;BME280;27766;52.174;5.456;2022-07-29T09:06:37;101670.34;;;19.67;100.00
42111;BME280;27766;52.174;5.456;2022-07-29T09:09:04;101658.84;;;19.85;100.00
42111;BME280;27766;52.174;5.456;2022-07-29T09:11:32;101677.38;;;19.65;100.00
42111;BME280;27766;52.174;5.456;2022-07-29T09:14:00;101671.44;;;19.35;100.00
42111;BME280;27766;52.174;5.456;2022-07-29T09:16:49;101676.72;;;19.22;100.00
42111;BME280;27766;52.174;5.456;2022-07-29T09:19:31;101677.53;;;19.38;100.00
42111;BME280;27766;52.174;5.456;2022-07-29T09:22:03;101680.00;;;19.61;99.12
42111;BME280;27766;52.174;5.456;2022-07-29T09:24:39;101678.31;;;19.54;96.32
42111;BME280;27766;52.174;5.456;2022-07-29T09:27:23;101679.09;;;19.69;99.65
42111;BME280;27766;52.174;5.456;2022-07-29T09:30:01;101679.09;;;19.67;100.00
42111;BME280;27766;52.174;5.456;2022-07-29T09:32:30;101675.56;;;19.71;97.97
42111;BME280;27766;52.174;5.456;2022-07-29T09:35:18;101682.56;;;19.75;100.00
42111;BME280;27766;52.174;5.456;2022-07-29T09:37:46;101685.09;;;19.83;100.00
42111;BME280;27766;52.174;5.456;2022-07-29T09:40:18;101677.28;;;19.80;94.38
42111;BME280;27766;52.174;5.456;2022-07-29T09:42:50;101687.75;;;19.78;97.98
42111;BME280;27766;52.174;5.456;2022-07-29T09:45:29;101674.66;;;19.74;97.38
42111;BME280;27766;52.174;5.456;2022-07-29T09:47:58;101681.66;;;19.78;99.46
42111;BME280;27766;52.174;5.456;2022-07-29T09:50:40;101678.16;;;19.79;100.00
42111;BME280;27766;52.174;5.456;2022-07-29T09:53:08;101673.72;;;19.81;100.00
42111;BME280;27766;52.174;5.456;2022-07-29T09:55:51;101665.00;;;19.79;100.00
42111;BME280;27766;52.174;5.456;2022-07-29T09:58:21;101655.34;;;19.87;98.72
42111;BME280;27766;52.174;5.456;2022-07-29T10:00:51;101668.31;;;20.06;94.44
42111;BME280;27766;52.174;5.456;2022-07-29T10:03:19;101660.56;;;19.90;93.75
42111;BME280;27766;52.174;5.456;2022-07-29T10:06:05;101659.63;;;19.98;94.66
42111;BME280;27766;52.174;5.456;2022-07-29T10:08:32;101664.94;;;19.91;97.73
42111;BME280;27766;52.174;5.456;2022-07-29T10:11:13;101663.25;;;19.84;98.78
42111;BME280;27766;52.174;5.456;2022-07-29T10:13:41;101664.97;;;19.90;97.23
42111;BME280;27766;52.174;5.456;2022-07-29T10:16:09;101660.38;;;20.12;96.99
42111;BME280;27766;52.174;5.456;2022-07-29T10:18:40;101665.53;;;20.26;94.48
42111;BME280;27766;52.174;5.456;2022-07-29T10:21:08;101660.22;;;20.31;90.56
42111;BME280;27766;52.174;5.456;2022-07-29T10:23:36;101669.88;;;20.32;90.79
42111;BME280;27766;52.174;5.456;2022-07-29T10:26:13;101671.59;;;20.31;88.61
42111;BME280;27766;52.174;5.456;2022-07-29T10:28:41;101672.41;;;20.39;89.55
42111;BME280;27766;52.174;5.456;2022-07-29T10:31:15;101671.53;;;20.42;90.31
42111;BME280;27766;52.174;5.456;2022-07-29T10:34:07;101669.63;;;20.56;93.22
42111;BME280;27766;52.174;5.456;2022-07-29T10:36:45;101669.41;;;20.77;87.78
42111;BME280;27766;52.174;5.456;2022-07-29T10:39:32;101667.66;;;20.80;90.37
42111;BME280;27766;52.174;5.456;2022-07-29T10:42:23;101659.59;;;20.93;95.60
42111;BME280;27766;52.174;5.456;2022-07-29T10:44:59;101667.31;;;21.05;91.43
42111;BME280;27766;52.174;5.456;2022-07-29T10:47:27;101666.88;;;21.39;83.87
42111;BME280;27766;52.174;5.456;2022-07-29T10:50:04;101665.50;;;21.74;75.70
42111;BME280;27766;52.174;5.456;2022-07-29T10:55:37;101663.81;;;22.23;76.12
42111;BME280;27766;52.174;5.456;2022-07-29T10:58:21;101649.44;;;22.43;67.37
42111;BME280;27766;52.174;5.456;2022-07-29T11:00:52;101662.31;;;22.60;66.57
42111;BME280;27766;52.174;5.456;2022-07-29T11:03:46;101667.31;;;22.74;65.06
42111;BME280;27766;52.174;5.456;2022-07-29T11:06:20;101664.38;;;22.89;64.32
42111;BME280;27766;52.174;5.456;2022-07-29T11:09:17;101664.81;;;23.10;60.60
42111;BME280;27766;52.174;5.456;2022-07-29T11:12:47;101658.53;;;23.16;59.47
42111;BME280;27766;52.174;5.456;2022-07-29T11:14:57;101660.44;;;23.09;61.06
42111;BME280;27766;52.174;5.456;2022-07-29T11:17:26;101656.66;;;23.22;57.67
42111;BME280;27766;52.174;5.456;2022-07-29T11:26:20;101662.59;;;23.71;54.43
42111;BME280;27766;52.174;5.456;2022-07-29T11:28:58;101656.00;;;23.90;56.01
42111;BME280;27766;52.174;5.456;2022-07-29T11:31:40;101662.84;;;23.98;55.04
42111;BME280;27766;52.174;5.456;2022-07-29T11:34:29;101662.38;;;24.17;53.14
42111;BME280;27766;52.174;5.456;2022-07-29T11:45:18;101665.22;;;24.09;52.64
42111;BME280;27766;52.174;5.456;2022-07-29T11:48:07;101641.81;;;23.92;53.09
42111;BME280;27766;52.174;5.456;2022-07-29T11:50:56;101660.94;;;24.03;54.20
42111;BME280;27766;52.174;5.456;2022-07-29T11:53:25;101663.06;;;24.24;55.12
42111;BME280;27766;52.174;5.456;2022-07-29T11:55:59;101657.66;;;24.61;53.06
42111;BME280;27766;52.174;5.456;2022-07-29T11:58:29;101639.41;;;25.13;52.19
42111;BME280;27766;52.174;5.456;2022-07-29T12:00:56;101655.78;;;25.83;49.58
42111;BME280;27766;52.174;5.456;2022-07-29T12:03:30;101657.44;;;26.39;48.91
42111;BME280;27766;52.174;5.456;2022-07-29T12:06:11;101657.63;;;26.84;47.05
42111;BME280;27766;52.174;5.456;2022-07-29T12:08:42;101666.00;;;26.97;44.68
42111;BME280;27766;52.174;5.456;2022-07-29T12:11:19;101642.25;;;26.92;45.16
42111;BME280;27766;52.174;5.456;2022-07-29T12:13:52;101649.53;;;27.33;45.10
42111;BME280;27766;52.174;5.456;2022-07-29T12:16:21;101656.00;;;27.72;42.64
42111;BME280;27766;52.174;5.456;2022-07-29T12:18:57;101650.34;;;27.79;43.39
42111;BME280;27766;52.174;5.456;2022-07-29T12:21:26;101659.09;;;27.61;43.40
42111;BME280;27766;52.174;5.456;2022-07-29T12:23:56;101649.34;;;27.15;42.79
42111;BME280;27766;52.174;5.456;2022-07-29T12:26:34;101666.56;;;27.73;42.56
42111;BME280;27766;52.174;5.456;2022-07-29T12:29:02;101651.06;;;27.83;42.14
42111;BME280;27766;52.174;5.456;2022-07-29T12:31:41;101661.59;;;28.08;40.90
42111;BME280;27766;52.174;5.456;2022-07-29T12:34:13;101656.63;;;28.40;40.41
42111;BME280;27766;52.174;5.456;2022-07-29T12:36:42;101660.41;;;28.16;40.86
42111;BME280;27766;52.174;5.456;2022-07-29T12:39:10;101674.50;;;28.38;40.41
42111;BME280;27766;52.174;5.456;2022-07-29T12:41:38;101662.31;;;27.01;42.11
42111;BME280;27766;52.174;5.456;2022-07-29T12:44:05;101662.59;;;28.26;41.27
42111;BME280;27766;52.174;5.456;2022-07-29T12:46:32;101665.75;;;28.14;41.44
42111;BME280;27766;52.174;5.456;2022-07-29T12:49:00;101658.69;;;29.13;40.10
42111;BME280;27766;52.174;5.456;2022-07-29T12:51:35;101662.69;;;29.60;38.44
42111;BME280;27766;52.174;5.456;2022-07-29T12:54:09;101664.38;;;29.44;38.72
42111;BME280;27766;52.174;5.456;2022-07-29T12:56:38;101653.78;;;28.24;40.70
42111;BME280;27766;52.174;5.456;2022-07-29T12:59:13;101653.81;;;28.64;40.43
42111;BME280;27766;52.174;5.456;2022-07-29T13:01:40;101650.41;;;29.39;40.25
42111;BME280;27766;52.174;5.456;2022-07-29T13:04:07;101649.03;;;29.66;39.57
42111;BME280;27766;52.174;5.456;2022-07-29T13:06:41;101644.84;;;30.15;38.97
42111;BME280;27766;52.174;5.456;2022-07-29T13:09:17;101645.66;;;30.51;38.39
42111;BME280;27766;52.174;5.456;2022-07-29T13:11:46;101642.28;;;30.97;37.65
42111;BME280;27766;52.174;5.456;2022-07-29T13:14:35;101646.59;;;31.15;36.30
42111;BME280;27766;52.174;5.456;2022-07-29T13:19:46;101644.31;;;31.55;35.92
42111;BME280;27766;52.174;5.456;2022-07-29T13:22:16;101647.47;;;31.78;35.78
42111;BME280;27766;52.174;5.456;2022-07-29T13:25:00;101633.56;;;31.87;35.47
42111;BME280;27766;52.174;5.456;2022-07-29T13:27:35;101645.19;;;32.17;34.67
42111;BME280;27766;52.174;5.456;2022-07-29T13:30:07;101645.03;;;31.43;34.77
42111;BME280;27766;52.174;5.456;2022-07-29T13:32:35;101644.31;;;30.75;36.25
42111;BME280;27766;52.174;5.456;2022-07-29T13:35:08;101642.50;;;31.09;36.64
42111;BME280;27766;52.174;5.456;2022-07-29T13:37:36;101641.94;;;31.35;35.96
42111;BME280;27766;52.174;5.456;2022-07-29T13:40:06;101643.41;;;30.08;36.70
42111;BME280;27766;52.174;5.456;2022-07-29T13:42:34;101638.44;;;29.28;38.62
42111;BME280;27766;52.174;5.456;2022-07-29T13:45:02;101645.81;;;29.60;37.74